createdAt,value
2019-05-18T00:00:20.627Z,-57
2019-05-18T00:01:23.231Z,-55
2019-05-18T00:02:25.855Z,-56
2019-05-18T00:03:28.309Z,-57
2019-05-18T00:04:30.773Z,-56
2019-05-18T00:05:33.548Z,-56
2019-05-18T00:06:36.076Z,-57
2019-05-18T00:07:38.613Z,-56
2019-05-18T00:08:41.157Z,-56
2019-05-18T00:09:43.638Z,-58
2019-05-18T00:10:46.081Z,-58
2019-05-18T00:11:48.528Z,-58
2019-05-18T00:12:51.310Z,-58
2019-05-18T00:13:54.856Z,-58
2019-05-18T00:14:57.300Z,-57
2019-05-18T00:15:59.976Z,-58
2019-05-18T00:17:02.417Z,-58
2019-05-18T00:18:04.846Z,-56
2019-05-18T00:19:07.305Z,-56
2019-05-18T00:20:10.818Z,-56
2019-05-18T00:21:13.272Z,-56
2019-05-18T00:22:15.791Z,-56
2019-05-18T00:23:18.283Z,-55
2019-05-18T00:24:20.865Z,-56
2019-05-18T00:25:23.523Z,-54
2019-05-18T00:26:25.986Z,-56
2019-05-18T00:27:28.444Z,-54
2019-05-18T00:28:31.125Z,-56
2019-05-18T00:29:35.541Z,-56
2019-05-18T00:30:37.981Z,-56
2019-05-18T00:31:40.425Z,-56
2019-05-18T00:32:44.555Z,-56
2019-05-18T00:33:46.999Z,-57
2019-05-18T00:34:49.455Z,-54
2019-05-18T00:35:51.999Z,-57
2019-05-18T00:36:54.470Z,-57
2019-05-18T00:37:56.894Z,-57
2019-05-18T00:38:59.417Z,-57
2019-05-18T00:40:01.933Z,-55
2019-05-18T00:41:04.442Z,-56
2019-05-18T00:42:06.894Z,-56
2019-05-18T00:43:09.465Z,-56
2019-05-18T00:44:11.888Z,-56
2019-05-18T00:45:14.855Z,-55
2019-05-18T00:46:17.275Z,-56
2019-05-18T00:47:19.728Z,-57
2019-05-18T00:48:22.278Z,-57
2019-05-18T00:49:24.811Z,-57
2019-05-18T00:50:27.280Z,-57
2019-05-18T00:51:29.716Z,-57
2019-05-18T00:52:32.217Z,-57
2019-05-18T00:53:35.768Z,-57
2019-05-18T00:54:38.230Z,-57
2019-05-18T00:55:40.657Z,-57
2019-05-18T00:56:43.118Z,-57
2019-05-18T00:57:45.546Z,-56
2019-05-18T00:58:48.093Z,-57
2019-05-18T00:59:50.510Z,-57
2019-05-18T01:00:52.953Z,-57
2019-05-18T01:01:55.408Z,-56
2019-05-18T01:02:57.892Z,-57
2019-05-18T01:04:00.364Z,-57
2019-05-18T01:05:03.548Z,-57
2019-05-18T01:06:05.990Z,-57
2019-05-18T01:07:08.854Z,-56
2019-05-18T01:08:11.289Z,-57
2019-05-18T01:09:13.715Z,-57
2019-05-18T01:10:16.367Z,-57
2019-05-18T01:11:18.902Z,-57
2019-05-18T01:12:23.164Z,-57
2019-05-18T01:13:25.592Z,-56
2019-05-18T01:14:28.141Z,-54
2019-05-18T01:15:30.572Z,-57
2019-05-18T01:16:33.119Z,-57
2019-05-18T01:17:35.538Z,-57
2019-05-18T01:18:38.002Z,-57
2019-05-18T01:19:40.524Z,-55
2019-05-18T01:20:43.366Z,-56
2019-05-18T01:21:45.841Z,-57
2019-05-18T01:22:48.322Z,-57
2019-05-18T01:23:50.887Z,-57
2019-05-18T01:24:53.343Z,-57
2019-05-18T01:25:55.800Z,-57
2019-05-18T01:26:58.657Z,-57
2019-05-18T01:28:01.102Z,-57
2019-05-18T01:29:04.596Z,-57
2019-05-18T01:30:08.126Z,-57
2019-05-18T01:31:10.593Z,-57
2019-05-18T01:32:13.028Z,-57
2019-05-18T01:33:15.609Z,-57
2019-05-18T01:34:18.082Z,-57
2019-05-18T01:35:28.231Z,-57
2019-05-18T01:36:31.749Z,-56
2019-05-18T01:37:35.164Z,-57
2019-05-18T01:38:38.755Z,-57
2019-05-18T01:39:41.221Z,-57
2019-05-18T01:40:43.655Z,-57
2019-05-18T01:41:46.109Z,-57
2019-05-18T01:42:48.875Z,-57
2019-05-18T01:43:51.348Z,-57
2019-05-18T01:44:53.797Z,-57
2019-05-18T01:45:56.355Z,-57
2019-05-18T01:46:58.800Z,-57
2019-05-18T01:48:13.223Z,-57
2019-05-18T01:49:05.638Z,-57
2019-05-18T01:50:08.645Z,-57
2019-05-18T01:51:11.063Z,-57
2019-05-18T01:52:13.514Z,-57
2019-05-18T01:53:15.986Z,-57
2019-05-18T01:54:18.418Z,-57
2019-05-18T01:55:20.874Z,-57
2019-05-18T01:56:23.324Z,-57
2019-05-18T01:57:25.788Z,-56
2019-05-18T01:58:28.249Z,-57
2019-05-18T01:59:30.831Z,-56
2019-05-18T02:00:34.427Z,-56
2019-05-18T02:01:36.967Z,-57
2019-05-18T02:02:41.211Z,-56
2019-05-18T02:03:43.716Z,-57
2019-05-18T02:04:47.448Z,-57
2019-05-18T02:05:50.197Z,-57
2019-05-18T02:06:53.387Z,-57
2019-05-18T02:07:55.947Z,-56
2019-05-18T02:08:58.369Z,-56
2019-05-18T02:10:00.819Z,-57
2019-05-18T02:11:03.255Z,-56
2019-05-18T02:12:05.702Z,-57
2019-05-18T02:13:08.151Z,-57
2019-05-18T02:14:10.601Z,-57
2019-05-18T02:15:13.580Z,-56
2019-05-18T02:16:16.005Z,-57
2019-05-18T02:17:18.461Z,-57
2019-05-18T02:18:28.702Z,-57
2019-05-18T02:19:25.362Z,-57
2019-05-18T02:20:27.834Z,-56
2019-05-18T02:21:30.366Z,-56
2019-05-18T02:22:32.924Z,-56
2019-05-18T02:23:35.375Z,-57
2019-05-18T02:24:37.934Z,-57
2019-05-18T02:25:40.586Z,-57
2019-05-18T02:26:43.186Z,-57
2019-05-18T02:27:45.624Z,-57
2019-05-18T02:28:48.083Z,-57
2019-05-18T02:29:50.519Z,-57
2019-05-18T02:30:52.941Z,-57
2019-05-18T02:31:55.412Z,-56
2019-05-18T02:32:58.018Z,-57
2019-05-18T02:34:00.772Z,-57
2019-05-18T02:35:03.647Z,-57
2019-05-18T02:36:06.112Z,-57
2019-05-18T02:37:08.973Z,-57
2019-05-18T02:38:18.081Z,-57
2019-05-18T02:39:20.656Z,-57
2019-05-18T02:40:23.256Z,-57
2019-05-18T02:41:25.699Z,-57
2019-05-18T02:42:30.805Z,-57
2019-05-18T02:43:33.438Z,-57
2019-05-18T02:44:35.979Z,-55
2019-05-18T02:45:38.533Z,-57
2019-05-18T02:46:40.968Z,-57
2019-05-18T02:47:43.396Z,-57
2019-05-18T02:48:50.115Z,-57
2019-05-18T02:49:50.221Z,-57
2019-05-18T02:50:52.677Z,-57
2019-05-18T02:51:55.112Z,-57
2019-05-18T02:52:57.744Z,-57
2019-05-18T02:54:01.977Z,-57
2019-05-18T02:55:05.035Z,-57
2019-05-18T02:56:07.463Z,-57
2019-05-18T02:57:09.873Z,-57
2019-05-18T02:58:12.314Z,-57
2019-05-18T02:59:14.955Z,-57
2019-05-18T03:00:17.444Z,-57
2019-05-18T03:01:20.001Z,-56
2019-05-18T03:02:22.548Z,-57
2019-05-18T03:03:24.988Z,-55
2019-05-18T03:04:27.522Z,-57
2019-05-18T03:05:29.970Z,-57
2019-05-18T03:06:32.441Z,-56
2019-05-18T03:07:34.887Z,-57
2019-05-18T03:08:37.531Z,-55
2019-05-18T03:09:40.153Z,-55
2019-05-18T03:10:42.896Z,-57
2019-05-18T03:11:45.523Z,-57
2019-05-18T03:12:47.999Z,-56
2019-05-18T03:13:50.372Z,-57
2019-05-18T03:14:52.789Z,-56
2019-05-18T03:15:55.155Z,-56
2019-05-18T03:16:57.594Z,-57
2019-05-18T03:18:00.317Z,-57
2019-05-18T03:19:08.275Z,-57
2019-05-18T03:20:07.955Z,-57
2019-05-18T03:21:10.456Z,-57
2019-05-18T03:22:12.987Z,-56
2019-05-18T03:23:15.459Z,-57
2019-05-18T03:24:17.921Z,-57
2019-05-18T03:25:20.372Z,-57
2019-05-18T03:26:22.800Z,-57
2019-05-18T03:27:25.245Z,-57
2019-05-18T03:28:27.683Z,-57
2019-05-18T03:29:30.232Z,-57
2019-05-18T03:30:32.748Z,-57
2019-05-18T03:31:35.274Z,-57
2019-05-18T03:32:37.817Z,-55
2019-05-18T03:33:40.246Z,-55
2019-05-18T03:34:42.795Z,-57
2019-05-18T03:35:45.269Z,-55
2019-05-18T03:36:47.702Z,-57
2019-05-18T03:37:50.297Z,-57
2019-05-18T03:38:52.751Z,-57
2019-05-18T03:39:55.198Z,-57
2019-05-18T03:40:57.647Z,-56
2019-05-18T03:42:00.062Z,-57
2019-05-18T03:43:02.496Z,-57
2019-05-18T03:44:04.960Z,-57
2019-05-18T03:45:08.517Z,-57
2019-05-18T03:46:10.948Z,-57
2019-05-18T03:47:13.508Z,-57
2019-05-18T03:48:15.998Z,-55
2019-05-18T03:49:27.117Z,-56
2019-05-18T03:50:22.817Z,-55
2019-05-18T03:51:25.255Z,-57
2019-05-18T03:52:27.692Z,-56
2019-05-18T03:53:30.111Z,-57
2019-05-18T03:54:32.678Z,-57
2019-05-18T03:55:35.106Z,-57
2019-05-18T03:56:37.705Z,-57
2019-05-18T03:57:40.149Z,-56
2019-05-18T03:58:42.952Z,-57
2019-05-18T03:59:47.199Z,-57
2019-05-18T04:00:49.608Z,-57
2019-05-18T04:01:52.047Z,-57
2019-05-18T04:02:54.526Z,-57
2019-05-18T04:03:57.159Z,-57
2019-05-18T04:04:59.606Z,-57
2019-05-18T04:06:02.082Z,-57
2019-05-18T04:07:04.690Z,-57
2019-05-18T04:08:07.244Z,-57
2019-05-18T04:09:09.700Z,-57
2019-05-18T04:10:12.951Z,-61
2019-05-18T04:11:15.398Z,-57
2019-05-18T04:12:17.997Z,-57
2019-05-18T04:13:20.874Z,-57
2019-05-18T04:14:25.101Z,-57
2019-05-18T04:15:27.532Z,-57
2019-05-18T04:16:29.956Z,-57
2019-05-18T04:17:32.556Z,-57
2019-05-18T04:18:35.015Z,-57
2019-05-18T04:19:46.104Z,-57
2019-05-18T04:20:41.802Z,-57
2019-05-18T04:21:44.340Z,-57
2019-05-18T04:22:46.803Z,-56
2019-05-18T04:23:49.234Z,-57
2019-05-18T04:24:51.903Z,-57
2019-05-18T04:25:54.336Z,-57
2019-05-18T04:26:56.765Z,-56
2019-05-18T04:27:59.595Z,-57
2019-05-18T04:29:02.045Z,-57
2019-05-18T04:30:04.852Z,-57
2019-05-18T04:31:07.287Z,-57
2019-05-18T04:32:09.724Z,-57
2019-05-18T04:33:12.169Z,-57
2019-05-18T04:34:14.818Z,-57
2019-05-18T04:35:17.279Z,-57
2019-05-18T04:36:19.907Z,-57
2019-05-18T04:37:22.354Z,-56
2019-05-18T04:38:24.810Z,-57
2019-05-18T04:39:27.248Z,-57
2019-05-18T04:40:29.698Z,-56
2019-05-18T04:41:32.173Z,-57
2019-05-18T04:42:35.868Z,-57
2019-05-18T04:43:38.284Z,-57
2019-05-18T04:44:40.840Z,-57
2019-05-18T04:45:43.389Z,-57
2019-05-18T04:46:45.819Z,-57
2019-05-18T04:47:49.016Z,-57
2019-05-18T04:48:51.608Z,-57
2019-05-18T04:50:04.751Z,-57
2019-05-18T04:51:00.175Z,-57
2019-05-18T04:52:02.623Z,-57
2019-05-18T04:53:05.062Z,-57
2019-05-18T04:54:07.896Z,-56
2019-05-18T04:55:10.385Z,-56
2019-05-18T04:56:12.796Z,-57
2019-05-18T04:57:15.254Z,-57
2019-05-18T04:58:37.181Z,-56
2019-05-18T04:59:39.728Z,-57
2019-05-18T05:00:42.129Z,-57
2019-05-18T05:01:44.626Z,-57
2019-05-18T05:02:49.373Z,-56
2019-05-18T05:03:51.972Z,-57
2019-05-18T05:04:56.760Z,-57
2019-05-18T05:05:58.897Z,-57
2019-05-18T05:07:01.306Z,-56
2019-05-18T05:08:03.734Z,-57
2019-05-18T05:09:07.053Z,-57
2019-05-18T05:10:09.645Z,-57
2019-05-18T05:11:11.999Z,-57
2019-05-18T05:12:14.529Z,-58
2019-05-18T05:13:16.962Z,-57
2019-05-18T05:14:19.395Z,-57
2019-05-18T05:15:21.835Z,-55
2019-05-18T05:16:24.424Z,-56
2019-05-18T05:17:26.878Z,-57
2019-05-18T05:18:29.433Z,-57
2019-05-18T05:19:31.903Z,-56
2019-05-18T05:20:34.389Z,-57
2019-05-18T05:21:36.822Z,-56
2019-05-18T05:22:39.258Z,-56
2019-05-18T05:23:41.667Z,-57
2019-05-18T05:24:44.110Z,-58
2019-05-18T05:25:46.574Z,-57
2019-05-18T05:26:49.004Z,-57
2019-05-18T05:27:51.433Z,-57
2019-05-18T05:28:53.912Z,-57
2019-05-18T05:29:57.497Z,-57
2019-05-18T05:31:00.033Z,-57
2019-05-18T05:32:02.472Z,-56
2019-05-18T05:33:04.899Z,-58
2019-05-18T05:34:07.342Z,-57
2019-05-18T05:35:10.052Z,-57
2019-05-18T05:36:12.566Z,-57
2019-05-18T05:37:15.031Z,-57
2019-05-18T05:38:17.583Z,-58
2019-05-18T05:39:20.094Z,-57
2019-05-18T05:40:22.535Z,-57
2019-05-18T05:41:25.106Z,-57
2019-05-18T05:42:27.607Z,-57
2019-05-18T05:43:30.172Z,-58
2019-05-18T05:44:32.600Z,-57
2019-05-18T05:45:35.151Z,-57
2019-05-18T05:46:37.630Z,-57
2019-05-18T05:47:40.151Z,-57
2019-05-18T05:48:42.615Z,-57
2019-05-18T05:49:45.050Z,-57
2019-05-18T05:50:47.607Z,-57
2019-05-18T05:51:50.167Z,-57
2019-05-18T05:52:54.402Z,-57
2019-05-18T05:53:56.868Z,-57
2019-05-18T05:54:59.314Z,-57
2019-05-18T05:56:01.992Z,-57
2019-05-18T05:57:04.912Z,-57
2019-05-18T05:58:07.388Z,-56
2019-05-18T05:59:09.808Z,-57
2019-05-18T06:00:12.614Z,-57
2019-05-18T06:01:15.083Z,-57
2019-05-18T06:02:17.738Z,-57
2019-05-18T06:03:20.431Z,-56
2019-05-18T06:04:24.134Z,-56
2019-05-18T06:05:28.568Z,-57
2019-05-18T06:06:31.060Z,-57
2019-05-18T06:07:33.734Z,-57
2019-05-18T06:08:36.212Z,-57
2019-05-18T06:09:38.738Z,-56
2019-05-18T06:10:41.202Z,-57
2019-05-18T06:11:43.699Z,-58
2019-05-18T06:12:46.369Z,-57
2019-05-18T06:13:48.812Z,-57
2019-05-18T06:14:51.266Z,-57
2019-05-18T06:15:53.708Z,-57
2019-05-18T06:16:56.304Z,-57
2019-05-18T06:17:58.744Z,-57
2019-05-18T06:19:01.225Z,-57
2019-05-18T06:20:04.398Z,-57
2019-05-18T06:21:06.855Z,-57
2019-05-18T06:22:09.315Z,-57
2019-05-18T06:23:11.779Z,-56
2019-05-18T06:24:14.318Z,-57
2019-05-18T06:25:17.076Z,-57
2019-05-18T06:26:19.724Z,-57
2019-05-18T06:27:22.214Z,-57
2019-05-18T06:28:24.652Z,-57
2019-05-18T06:29:27.129Z,-57
2019-05-18T06:30:29.577Z,-57
2019-05-18T06:31:32.078Z,-56
2019-05-18T06:32:34.674Z,-56
2019-05-18T06:33:37.443Z,-57
2019-05-18T06:34:39.888Z,-58
2019-05-18T06:35:42.463Z,-57
2019-05-18T06:36:45.111Z,-57
2019-05-18T06:37:47.601Z,-57
2019-05-18T06:38:50.054Z,-57
2019-05-18T06:39:52.477Z,-57
2019-05-18T06:40:54.923Z,-57
2019-05-18T06:41:57.349Z,-57
2019-05-18T06:42:59.795Z,-57
2019-05-18T06:44:02.601Z,-57
2019-05-18T06:45:05.680Z,-57
2019-05-18T06:46:08.107Z,-57
2019-05-18T06:47:10.577Z,-57
2019-05-18T06:48:13.029Z,-57
2019-05-18T06:49:15.581Z,-57
2019-05-18T06:50:23.375Z,-57
2019-05-18T06:51:27.008Z,-58
2019-05-18T06:52:29.535Z,-56
2019-05-18T06:53:32.036Z,-57
2019-05-18T06:54:34.559Z,-57
2019-05-18T06:58:11.859Z,-57
2019-05-18T06:59:34.799Z,-57
2019-05-18T07:00:37.228Z,-57
2019-05-18T07:01:39.702Z,-57
2019-05-18T07:02:42.176Z,-57
2019-05-18T07:03:45.160Z,-57
2019-05-18T07:04:47.710Z,-57
2019-05-18T07:05:50.137Z,-56
2019-05-18T07:06:52.595Z,-57
2019-05-18T07:07:55.054Z,-58
2019-05-18T07:08:57.586Z,-57
2019-05-18T07:10:00.077Z,-58
2019-05-18T07:11:02.689Z,-58
2019-05-18T07:12:05.309Z,-57
2019-05-18T07:13:07.764Z,-58
2019-05-18T07:14:24.573Z,-58
2019-05-18T07:15:16.899Z,-58
2019-05-18T07:16:19.325Z,-58
2019-05-18T07:17:21.760Z,-58
2019-05-18T07:18:24.233Z,-58
2019-05-18T07:19:26.697Z,-58
2019-05-18T07:20:29.161Z,-58
2019-05-18T07:21:31.698Z,-58
2019-05-18T07:22:34.109Z,-58
2019-05-18T07:23:36.560Z,-58
2019-05-18T07:24:38.982Z,-58
2019-05-18T07:25:41.462Z,-58
2019-05-18T07:26:43.964Z,-58
2019-05-18T07:27:46.492Z,-57
2019-05-18T07:28:48.942Z,-58
2019-05-18T07:29:51.393Z,-58
2019-05-18T07:30:53.932Z,-58
2019-05-18T07:31:56.409Z,-58
2019-05-18T07:32:58.847Z,-58
2019-05-18T07:34:01.367Z,-58
2019-05-18T07:35:04.343Z,-58
2019-05-18T07:36:06.775Z,-58
2019-05-18T07:37:09.226Z,-58
2019-05-18T07:38:11.672Z,-58
2019-05-18T07:39:14.112Z,-58
2019-05-18T07:40:16.631Z,-58
2019-05-18T07:41:19.129Z,-58
2019-05-18T07:42:21.583Z,-58
2019-05-18T07:43:24.024Z,-58
2019-05-18T07:44:26.484Z,-58
2019-05-18T07:45:29.115Z,-58
2019-05-18T07:46:31.607Z,-58
2019-05-18T07:47:34.045Z,-58
2019-05-18T07:48:36.495Z,-58
2019-05-18T07:49:38.962Z,-58
2019-05-18T07:50:41.453Z,-58
2019-05-18T07:51:44.018Z,-58
2019-05-18T07:52:46.580Z,-58
2019-05-18T07:53:49.141Z,-58
2019-05-18T07:54:51.575Z,-58
2019-05-18T07:55:54.017Z,-59
2019-05-18T07:56:57.447Z,-58
2019-05-18T07:57:59.898Z,-58
2019-05-18T07:59:02.366Z,-58
2019-05-18T08:00:05.583Z,-57
2019-05-18T08:01:08.128Z,-58
2019-05-18T08:02:10.567Z,-58
2019-05-18T08:03:13.001Z,-58
2019-05-18T08:04:15.437Z,-58
2019-05-18T08:05:17.924Z,-58
2019-05-18T08:06:20.359Z,-57
2019-05-18T08:07:22.827Z,-58
2019-05-18T08:08:25.263Z,-58
2019-05-18T08:09:27.717Z,-58
2019-05-18T08:10:34.831Z,-58
2019-05-18T08:11:37.429Z,-58
2019-05-18T08:12:39.961Z,-58
2019-05-18T08:13:42.495Z,-58
2019-05-18T08:14:46.068Z,-58
2019-05-18T08:15:48.557Z,-58
2019-05-18T08:16:51.014Z,-58
2019-05-18T08:17:53.466Z,-59
2019-05-18T08:18:58.111Z,-58
2019-05-18T08:20:01.263Z,-59
2019-05-18T08:21:03.700Z,-59
2019-05-18T08:22:06.163Z,-59
2019-05-18T08:23:08.601Z,-58
2019-05-18T08:24:11.051Z,-59
2019-05-18T08:25:13.455Z,-58
2019-05-18T08:26:15.928Z,-59
2019-05-18T08:27:18.375Z,-58
2019-05-18T08:28:20.825Z,-59
2019-05-18T08:29:23.314Z,-57
2019-05-18T08:30:25.687Z,-58
2019-05-18T08:31:28.119Z,-58
2019-05-18T08:32:30.549Z,-58
2019-05-18T08:33:33.032Z,-58
2019-05-18T08:34:35.457Z,-58
2019-05-18T08:35:37.914Z,-58
2019-05-18T08:36:40.461Z,-58
2019-05-18T08:37:43.015Z,-58
2019-05-18T08:38:45.497Z,-58
2019-05-18T08:39:47.928Z,-58
2019-05-18T08:40:50.362Z,-58
2019-05-18T08:41:52.805Z,-58
2019-05-18T08:42:57.037Z,-58
2019-05-18T08:43:59.444Z,-58
2019-05-18T08:45:01.876Z,-58
2019-05-18T08:46:04.320Z,-58
2019-05-18T08:47:06.942Z,-58
2019-05-18T08:48:09.412Z,-58
2019-05-18T08:49:12.004Z,-58
2019-05-18T08:50:14.660Z,-58
2019-05-18T08:51:17.115Z,-58
2019-05-18T08:52:19.843Z,-58
2019-05-18T08:53:22.303Z,-58
2019-05-18T08:54:24.733Z,-58
2019-05-18T08:55:27.176Z,-58
2019-05-18T08:56:29.629Z,-58
2019-05-18T08:57:32.202Z,-58
2019-05-18T08:58:34.671Z,-58
2019-05-18T08:59:39.982Z,-58
2019-05-18T09:00:42.783Z,-58
2019-05-18T09:01:45.202Z,-58
2019-05-18T09:02:47.740Z,-58
2019-05-18T09:03:50.146Z,-58
2019-05-18T09:04:52.645Z,-60
2019-05-18T09:05:55.187Z,-60
2019-05-18T09:06:57.654Z,-58
2019-05-18T09:08:01.960Z,-58
2019-05-18T09:09:05.586Z,-58
2019-05-18T09:10:10.263Z,-58
2019-05-18T09:11:20.786Z,-58
2019-05-18T09:12:34.137Z,-58
2019-05-18T09:13:37.689Z,-58
2019-05-18T09:14:40.149Z,-58
2019-05-18T09:15:43.017Z,-58
2019-05-18T09:16:45.480Z,-58
2019-05-18T09:17:48.135Z,-58
2019-05-18T09:18:50.611Z,-58
2019-05-18T09:19:53.045Z,-58
2019-05-18T09:20:55.505Z,-58
2019-05-18T09:21:57.961Z,-58
2019-05-18T09:23:00.496Z,-58
2019-05-18T09:24:03.162Z,-58
2019-05-18T09:25:05.739Z,-58
2019-05-18T09:26:08.308Z,-58
2019-05-18T09:27:10.740Z,-58
2019-05-18T09:28:15.006Z,-58
2019-05-18T09:29:17.360Z,-58
2019-05-18T09:30:20.003Z,-58
2019-05-18T09:31:22.445Z,-58
2019-05-18T09:32:25.093Z,-58
2019-05-18T09:33:27.542Z,-58
2019-05-18T09:34:29.982Z,-58
2019-05-18T09:35:32.471Z,-58
2019-05-18T09:36:34.929Z,-58
2019-05-18T09:37:37.409Z,-58
2019-05-18T09:38:39.948Z,-58
2019-05-18T09:39:42.379Z,-58
2019-05-18T09:40:44.879Z,-58
2019-05-18T09:41:47.315Z,-58
2019-05-18T09:42:49.786Z,-58
2019-05-18T09:43:52.308Z,-58
2019-05-18T09:44:54.727Z,-58
2019-05-18T09:45:57.227Z,-58
2019-05-18T09:46:59.700Z,-58
2019-05-18T09:48:02.105Z,-57
2019-05-18T09:49:04.587Z,-58
2019-05-18T09:50:07.725Z,-58
2019-05-18T09:51:10.191Z,-58
2019-05-18T09:52:12.623Z,-58
2019-05-18T09:53:15.070Z,-58
2019-05-18T09:54:17.539Z,-58
2019-05-18T09:55:20.307Z,-58
2019-05-18T09:56:22.750Z,-58
2019-05-18T09:57:25.208Z,-58
2019-05-18T09:58:27.679Z,-58
2019-05-18T09:59:30.136Z,-58
2019-05-18T10:00:38.476Z,-58
2019-05-18T10:01:36.975Z,-58
2019-05-18T10:02:39.516Z,-58
2019-05-18T10:03:47.591Z,-58
2019-05-18T10:04:50.487Z,-58
2019-05-18T10:05:54.736Z,-58
2019-05-18T10:06:57.226Z,-58
2019-05-18T10:07:59.853Z,-58
2019-05-18T10:09:03.387Z,-57
2019-05-18T10:10:06.760Z,-57
2019-05-18T10:11:09.214Z,-57
2019-05-18T10:12:11.684Z,-58
2019-05-18T10:13:14.115Z,-57
2019-05-18T10:14:16.562Z,-58
2019-05-18T10:15:19.318Z,-57
2019-05-18T10:16:21.783Z,-57
2019-05-18T10:17:24.263Z,-58
2019-05-18T10:18:26.923Z,-57
2019-05-18T10:19:29.339Z,-57
2019-05-18T10:20:31.787Z,-57
2019-05-18T10:21:34.273Z,-57
2019-05-18T10:22:36.802Z,-57
2019-05-18T10:23:40.571Z,-57
2019-05-18T10:24:43.259Z,-57
2019-05-18T10:25:45.736Z,-57
2019-05-18T10:26:48.169Z,-57
2019-05-18T10:27:52.470Z,-56
2019-05-18T10:28:54.921Z,-57
2019-05-18T10:29:57.361Z,-57
2019-05-18T10:30:59.937Z,-56
2019-05-18T10:32:02.378Z,-57
2019-05-18T10:33:04.952Z,-57
2019-05-18T10:34:07.394Z,-57
2019-05-18T10:35:10.249Z,-57
2019-05-18T10:36:12.800Z,-57
2019-05-18T10:37:15.248Z,-57
2019-05-18T10:38:17.715Z,-57
2019-05-18T10:39:20.200Z,-57
2019-05-18T10:40:22.641Z,-55
2019-05-18T10:41:25.245Z,-57
2019-05-18T10:42:27.671Z,-57
2019-05-18T10:43:30.219Z,-57
2019-05-18T10:44:34.525Z,-57
2019-05-18T10:45:36.951Z,-57
2019-05-18T10:46:39.421Z,-57
2019-05-18T10:47:41.872Z,-57
2019-05-18T10:48:44.260Z,-57
2019-05-18T10:49:46.706Z,-57
2019-05-18T10:50:49.127Z,-57
2019-05-18T10:51:51.692Z,-58
2019-05-18T10:52:54.117Z,-56
2019-05-18T10:53:56.548Z,-57
2019-05-18T10:54:58.969Z,-56
2019-05-18T10:56:01.676Z,-57
2019-05-18T10:57:04.133Z,-57
2019-05-18T10:58:06.578Z,-57
2019-05-18T10:59:09.025Z,-57
2019-05-18T11:00:12.099Z,-57
2019-05-18T11:01:14.662Z,-57
2019-05-18T11:02:17.144Z,-57
2019-05-18T11:03:19.558Z,-57
2019-05-18T11:04:22.005Z,-57
2019-05-18T11:05:24.575Z,-57
2019-05-18T11:06:27.020Z,-57
2019-05-18T11:07:29.692Z,-56
2019-05-18T11:08:32.210Z,-57
2019-05-18T11:09:34.671Z,-56
2019-05-18T11:10:37.145Z,-57
2019-05-18T11:11:39.576Z,-57
2019-05-18T11:12:42.048Z,-57
2019-05-18T11:13:44.582Z,-56
2019-05-18T11:14:47.010Z,-57
2019-05-18T11:15:49.425Z,-57
2019-05-18T11:16:52.095Z,-57
2019-05-18T11:17:54.627Z,-57
2019-05-18T11:18:57.044Z,-57
2019-05-18T11:19:59.470Z,-57
2019-05-18T11:21:01.902Z,-57
2019-05-18T11:22:04.560Z,-57
2019-05-18T11:23:07.011Z,-57
2019-05-18T11:24:09.475Z,-57
2019-05-18T11:25:12.244Z,-57
2019-05-18T11:26:14.802Z,-57
2019-05-18T11:27:17.385Z,-57
2019-05-18T11:28:19.817Z,-57
2019-05-18T11:29:23.675Z,-56
2019-05-18T11:30:26.670Z,-57
2019-05-18T11:31:29.131Z,-57
2019-05-18T11:32:31.561Z,-57
2019-05-18T11:33:34.015Z,-57
2019-05-18T11:34:36.488Z,-57
2019-05-18T11:35:39.058Z,-57
2019-05-18T11:36:41.514Z,-57
2019-05-18T11:37:43.986Z,-57
2019-05-18T11:38:46.411Z,-57
2019-05-18T11:39:50.449Z,-55
2019-05-18T11:40:52.939Z,-57
2019-05-18T11:41:55.416Z,-57
2019-05-18T11:42:57.872Z,-57
2019-05-18T11:44:00.435Z,-57
2019-05-18T11:45:04.926Z,-57
2019-05-18T11:46:07.470Z,-57
2019-05-18T11:47:09.940Z,-56
2019-05-18T11:48:12.426Z,-57
2019-05-18T11:49:15.180Z,-57
2019-05-18T11:50:18.279Z,-55
2019-05-18T11:51:20.739Z,-56
2019-05-18T11:52:23.288Z,-57
2019-05-18T11:53:25.715Z,-56
2019-05-18T11:54:28.178Z,-56
2019-05-18T11:55:30.676Z,-57
2019-05-18T11:56:33.104Z,-57
2019-05-18T11:57:35.771Z,-57
2019-05-18T11:58:38.214Z,-57
2019-05-18T11:59:40.651Z,-57
2019-05-18T12:00:43.249Z,-57
2019-05-18T12:01:47.487Z,-56
2019-05-18T12:02:49.983Z,-57
2019-05-18T12:03:52.540Z,-57
2019-05-18T12:04:55.026Z,-57
2019-05-18T12:05:57.464Z,-57
2019-05-18T12:07:00.005Z,-55
2019-05-18T12:08:04.574Z,-57
2019-05-18T12:09:07.011Z,-57
2019-05-18T12:10:10.075Z,-57
2019-05-18T12:11:12.515Z,-57
2019-05-18T12:12:14.964Z,-57
2019-05-18T12:13:17.456Z,-57
2019-05-18T12:14:19.988Z,-57
2019-05-18T12:15:22.632Z,-57
2019-05-18T12:16:25.105Z,-56
2019-05-18T12:17:27.568Z,-57
2019-05-18T12:18:30.061Z,-57
2019-05-18T12:19:32.482Z,-56
2019-05-18T12:20:34.951Z,-57
2019-05-18T12:21:37.379Z,-57
2019-05-18T12:22:39.808Z,-57
2019-05-18T12:23:42.382Z,-56
2019-05-18T12:24:44.812Z,-57
2019-05-18T12:25:50.273Z,-56
2019-05-18T12:26:51.649Z,-56
2019-05-18T12:27:54.220Z,-57
2019-05-18T12:28:56.667Z,-57
2019-05-18T12:29:59.150Z,-57
2019-05-18T12:31:02.239Z,-57
2019-05-18T12:32:05.053Z,-56
2019-05-18T12:33:07.496Z,-57
2019-05-18T12:34:10.006Z,-57
2019-05-18T12:35:13.523Z,-57
2019-05-18T12:36:16.026Z,-57
2019-05-18T12:37:22.334Z,-57
2019-05-18T12:38:24.787Z,-56
2019-05-18T12:39:27.501Z,-57
2019-05-18T12:40:30.042Z,-56
2019-05-18T12:41:32.519Z,-56
2019-05-18T12:42:34.946Z,-56
2019-05-18T12:43:37.473Z,-57
2019-05-18T12:44:40.060Z,-56
2019-05-18T12:45:42.541Z,-57
2019-05-18T12:46:44.989Z,-57
2019-05-18T12:47:47.558Z,-56
2019-05-18T12:48:49.968Z,-56
2019-05-18T12:49:52.536Z,-57
2019-05-18T12:50:54.979Z,-57
2019-05-18T12:51:57.400Z,-57
2019-05-18T12:52:59.845Z,-57
2019-05-18T12:54:02.300Z,-56
2019-05-18T12:55:05.232Z,-56
2019-05-18T12:56:07.700Z,-57
2019-05-18T12:57:10.151Z,-56
2019-05-18T12:58:12.705Z,-56
2019-05-18T12:59:15.156Z,-56
2019-05-18T13:00:18.498Z,-56
2019-05-18T13:01:20.927Z,-57
2019-05-18T13:02:23.356Z,-57
2019-05-18T13:03:25.912Z,-57
2019-05-18T13:04:29.525Z,-56
2019-05-18T13:05:31.948Z,-57
2019-05-18T13:06:34.393Z,-56
2019-05-18T13:07:36.835Z,-57
2019-05-18T13:08:39.284Z,-56
2019-05-18T13:09:41.750Z,-56
2019-05-18T13:10:44.223Z,-56
2019-05-18T13:11:46.775Z,-57
2019-05-18T13:12:50.359Z,-56
2019-05-18T13:13:52.824Z,-56
2019-05-18T13:14:55.279Z,-57
2019-05-18T13:15:57.698Z,-56
2019-05-18T13:17:00.119Z,-56
2019-05-18T13:18:04.491Z,-57
2019-05-18T13:19:07.117Z,-55
2019-05-18T13:20:10.756Z,-56
2019-05-18T13:21:13.184Z,-56
2019-05-18T13:22:15.616Z,-57
2019-05-18T13:23:18.093Z,-56
2019-05-18T13:24:20.631Z,-57
2019-05-18T13:25:23.097Z,-56
2019-05-18T13:26:25.517Z,-57
2019-05-18T13:27:38.855Z,-57
2019-05-18T13:28:32.314Z,-56
2019-05-18T13:29:34.768Z,-56
2019-05-18T13:30:37.208Z,-59
2019-05-18T13:31:39.627Z,-59
2019-05-18T13:32:42.155Z,-59
2019-05-18T13:33:44.645Z,-59
2019-05-18T13:34:47.169Z,-59
2019-05-18T13:35:49.636Z,-59
2019-05-18T13:36:52.353Z,-59
2019-05-18T13:37:54.813Z,-59
2019-05-18T13:38:57.321Z,-59
2019-05-18T13:39:59.761Z,-59
2019-05-18T13:41:02.228Z,-59
2019-05-18T13:42:04.675Z,-59
2019-05-18T13:43:07.422Z,-58
2019-05-18T13:44:09.946Z,-59
2019-05-18T13:45:13.584Z,-59
2019-05-18T13:46:16.028Z,-59
2019-05-18T13:47:20.291Z,-59
2019-05-18T13:48:22.710Z,-59
2019-05-18T13:49:26.349Z,-59
2019-05-18T13:50:28.737Z,-59
2019-05-18T13:51:31.211Z,-57
2019-05-18T13:52:33.669Z,-55
2019-05-18T13:53:36.086Z,-56
2019-05-18T13:54:38.570Z,-56
2019-05-18T13:55:41.007Z,-54
2019-05-18T13:56:43.440Z,-56
2019-05-18T13:57:45.889Z,-57
2019-05-18T13:58:48.342Z,-56
2019-05-18T13:59:50.822Z,-57
2019-05-18T14:00:55.070Z,-57
2019-05-18T14:01:57.689Z,-56
2019-05-18T14:03:00.138Z,-56
2019-05-18T14:04:02.743Z,-55
2019-05-18T14:05:06.336Z,-56
2019-05-18T14:06:09.092Z,-57
2019-05-18T14:07:13.362Z,-56
2019-05-18T14:08:16.144Z,-57
2019-05-18T14:09:19.549Z,-56
2019-05-18T14:10:22.128Z,-57
2019-05-18T14:11:24.677Z,-56
2019-05-18T14:12:27.110Z,-57
2019-05-18T14:13:29.567Z,-57
2019-05-18T14:14:31.965Z,-57
2019-05-18T14:15:34.542Z,-57
2019-05-18T14:16:38.076Z,-56
2019-05-18T14:17:40.498Z,-57
2019-05-18T14:18:43.045Z,-57
2019-05-18T14:19:45.599Z,-57
2019-05-18T14:20:48.090Z,-55
2019-05-18T14:21:50.513Z,-56
2019-05-18T14:22:52.976Z,-57
2019-05-18T14:23:55.412Z,-56
2019-05-18T14:24:57.948Z,-56
2019-05-18T14:26:00.387Z,-56
2019-05-18T14:27:02.863Z,-56